Time;durP1;ratioP1;P1;durP2;ratioP2;P2;SDS_P1;SDS_P2;PMS_P1;PMS_P2;Temp;Humidity;BMP_temperature;BMP_pressure;BME280_temperature;BME280_humidity;BME280_pressure;Samples;Min_cycle;Max_cycle;Signal;HPM_P1;HPM_P2
2021/10/03 00:01:09;;;;;;;10.80;9.80;;;;;;;29.05;74.95;100915.06;5039666;28;66489;-35
2021/10/03 00:03:44;;;;;;;10.85;9.90;;;;;;;29.07;74.49;100907.59;5042210;28;70380;-35
2021/10/03 00:06:17;;;;;;;10.05;9.35;;;;;;;28.76;74.30;100863.09;5049283;28;66627;-35
2021/10/03 00:08:51;;;;;;;10.68;9.98;;;;;;;29.11;74.84;100915.09;5043566;27;70432;-35
2021/10/03 00:11:22;;;;;;;9.60;9.10;;;;;;;29.13;74.87;100915.69;5037495;28;64363;-34
2021/10/03 00:13:53;;;;;;;10.30;9.57;;;;;;;29.12;74.20;100911.34;5041147;28;69124;-35
2021/10/03 00:16:24;;;;;;;10.10;9.40;;;;;;;29.13;74.30;100907.59;5039825;28;67219;-34
2021/10/03 00:18:55;;;;;;;9.95;9.35;;;;;;;29.14;74.68;100908.41;5043405;28;70330;-35
2021/10/03 00:21:41;;;;;;;10.23;9.52;;;;;;;29.15;74.72;100904.69;5028389;28;66052;-35
2021/10/03 00:24:12;;;;;;;10.10;9.47;;;;;;;29.13;74.14;100907.59;5041607;28;69779;-37
2021/10/03 00:26:43;;;;;;;11.82;10.57;;;;;;;29.14;74.36;100920.09;5039681;28;66249;-37
2021/10/03 00:29:14;;;;;;;11.00;9.63;;;;;;;29.07;74.66;100903.03;5041531;28;71532;-37
2021/10/03 00:31:45;;;;;;;10.73;9.98;;;;;;;29.18;74.59;100925.88;5038027;28;65357;-37
2021/10/03 00:34:16;;;;;;;9.57;8.98;;;;;;;29.12;74.28;100911.34;5044082;28;69410;-37
2021/10/03 00:36:47;;;;;;;10.65;9.80;;;;;;;29.17;73.95;100926.94;5038432;28;66688;-38
2021/10/03 00:39:18;;;;;;;9.77;9.18;;;;;;;29.22;74.23;100937.94;5048070;28;70480;-36
2021/10/03 00:41:51;;;;;;;9.93;9.32;;;;;;;29.22;73.96;100948.72;5037809;28;65427;-36
2021/10/03 00:44:22;;;;;;;9.50;8.97;;;;;;;29.21;74.20;100947.09;5040198;28;70329;-37
2021/10/03 00:46:52;;;;;;;10.15;9.18;;;;;;;29.24;74.48;100953.94;5038712;28;65998;-36
2021/10/03 00:49:24;;;;;;;9.95;9.35;;;;;;;29.24;74.28;100957.47;5041129;28;69700;-36
2021/10/03 00:51:55;;;;;;;9.25;8.75;;;;;;;29.02;73.90;100921.69;5039442;27;65356;-36
2021/10/03 00:54:25;;;;;;;9.80;9.27;;;;;;;29.23;74.40;100947.72;5043044;28;70560;-37
2021/10/03 00:56:56;;;;;;;9.60;9.00;;;;;;;29.26;73.88;100965.38;5039424;28;65547;-37
2021/10/03 00:59:27;;;;;;;10.20;9.60;;;;;;;29.26;73.89;100966.22;5037843;28;69817;-37
2021/10/03 01:01:59;;;;;;;10.27;9.57;;;;;;;29.27;74.05;100973.25;5037426;28;66310;-38
2021/10/03 01:04:30;;;;;;;8.80;8.30;;;;;;;29.27;74.50;100984.06;5042291;28;70117;-38
2021/10/03 01:07:01;;;;;;;15.10;11.32;;;;;;;29.29;73.89;100986.56;5045602;28;65983;-38
2021/10/03 01:09:32;;;;;;;9.60;8.90;;;;;;;29.23;73.47;100987.41;5049283;28;69926;-37
2021/10/03 01:12:03;;;;;;;9.65;8.75;;;;;;;29.18;73.01;101002.34;5053830;28;66875;-37
2021/10/03 01:14:34;;;;;;;9.68;9.00;;;;;;;29.07;73.33;100994.03;5051478;28;70144;-37
2021/10/03 01:17:05;;;;;;;10.57;9.80;;;;;;;29.24;73.52;101005.28;5052634;28;66233;-37
2021/10/03 01:19:37;;;;;;;11.52;8.52;;;;;;;29.23;73.67;101004.44;5049915;28;69954;-38
2021/10/03 01:22:07;;;;;;;10.85;9.77;;;;;;;29.23;73.00;101015.25;5050869;28;65721;-37
2021/10/03 01:24:39;;;;;;;8.55;8.05;;;;;;;29.22;72.67;101018.97;5045695;28;69462;-37
2021/10/03 01:27:10;;;;;;;8.57;7.97;;;;;;;29.23;73.14;101015.25;5043164;28;66340;-37
2021/10/03 01:29:42;;;;;;;9.23;8.32;;;;;;;29.26;73.09;101024.81;5049367;28;69592;-37
2021/10/03 01:32:12;;;;;;;;;;;;;;;28.93;73.09;101020.97;5049929;28;66220;-37
2021/10/03 01:34:44;;;;;;;10.85;9.90;;;;;;;29.25;73.09;101025.84;5046349;27;69873;-37
2021/10/03 01:37:15;;;;;;;9.00;8.30;;;;;;;29.28;72.60;101026.28;5044936;28;66097;-38
2021/10/03 01:39:46;;;;;;;7.88;7.38;;;;;;;29.31;72.41;101028.56;5046455;27;69239;-37
2021/10/03 01:42:17;;;;;;;7.80;7.20;;;;;;;29.28;71.61;101025.41;5043759;28;66108;-37
2021/10/03 01:44:48;;;;;;;7.30;6.70;;;;;;;29.31;71.21;101017.75;5046353;28;71612;-37
2021/10/03 01:47:19;;;;;;;6.50;6.10;;;;;;;29.32;71.55;101018.59;5046091;28;65214;-37
2021/10/03 01:49:53;;;;;;;14.95;6.95;;;;;;;29.34;71.69;101017.34;5047412;28;69969;-37
2021/10/03 01:52:24;;;;;;;6.17;5.67;;;;;;;29.33;71.06;101026.47;5048603;28;65836;-37
2021/10/03 01:54:54;;;;;;;6.15;5.70;;;;;;;29.37;71.42;101032.31;5045601;28;69165;-36
2021/10/03 01:57:25;;;;;;;5.63;5.22;;;;;;;29.40;71.41;101035.44;5044157;28;66183;-37
2021/10/03 01:59:56;;;;;;;5.78;5.38;;;;;;;29.42;71.50;101037.94;5052203;28;70051;-37
2021/10/03 02:02:27;;;;;;;6.53;5.93;;;;;;;29.38;70.95;101045.59;5043712;28;66437;-37
2021/10/03 02:04:59;;;;;;;6.78;6.15;;;;;;;29.39;71.13;101047.28;5049370;28;70274;-37
2021/10/03 02:07:30;;;;;;;6.30;5.80;;;;;;;29.46;71.18;101046.44;5046401;28;65582;-37
2021/10/03 02:10:02;;;;;;;8.18;5.88;;;;;;;29.44;70.53;101038.53;5045771;28;70164;-37
2021/10/03 02:12:33;;;;;;;6.97;5.43;;;;;;;29.48;70.76;101044.38;5053050;28;65976;-36
2021/10/03 02:15:04;;;;;;;7.28;6.28;;;;;;;29.47;70.63;101048.09;5050176;27;69952;-37
2021/10/03 02:17:36;;;;;;;6.15;5.60;;;;;;;29.44;71.20;101038.53;5044026;28;66376;-36
2021/10/03 02:20:07;;;;;;;9.25;6.43;;;;;;;29.47;71.49;101031.88;5043566;28;69461;-37
2021/10/03 02:22:38;;;;;;;6.37;5.93;;;;;;;29.54;70.94;101048.94;5049092;28;65920;-37
2021/10/03 02:25:10;;;;;;;7.45;6.90;;;;;;;29.53;70.88;101052.69;5047195;28;69927;-36
2021/10/03 02:27:41;;;;;;;7.22;6.53;;;;;;;29.53;70.84;101053.53;5048242;28;66290;-36
2021/10/03 02:30:13;;;;;;;6.82;6.25;;;;;;;29.55;71.58;101051.44;5042800;28;70117;-43
2021/10/03 02:32:44;;;;;;;6.90;6.20;;;;;;;29.52;71.19;101042.91;5046048;28;66063;-37
2021/10/03 02:35:15;;;;;;;6.50;6.10;;;;;;;29.61;71.34;101055.19;5048274;28;70424;-36
2021/10/03 02:37:45;;;;;;;7.57;6.82;;;;;;;29.58;70.86;101051.00;5043162;28;66947;-36
2021/10/03 02:40:17;;;;;;;7.07;6.68;;;;;;;29.30;71.12;100999.88;5045296;28;70091;-37
2021/10/03 02:42:48;;;;;;;9.10;6.25;;;;;;;29.60;72.03;101059.75;5033189;28;66345;-36
2021/10/03 02:45:20;;;;;;;7.70;6.80;;;;;;;29.57;71.28;101056.66;5029512;28;69683;-36
2021/10/03 02:47:51;;;;;;;9.70;6.43;;;;;;;29.59;71.29;101049.16;5045521;28;66402;-36
2021/10/03 02:50:22;;;;;;;7.07;6.47;;;;;;;29.57;70.95;101054.78;5047170;28;69749;-36
2021/10/03 02:52:53;;;;;;;7.57;6.88;;;;;;;29.57;71.14;101059.34;5044788;27;67167;-36
2021/10/03 02:55:25;;;;;;;7.57;6.97;;;;;;;29.57;71.04;101064.75;5047956;28;70217;-36
2021/10/03 02:57:55;;;;;;;7.40;6.80;;;;;;;29.54;70.69;101054.34;5049644;28;66435;-37
2021/10/03 03:00:26;;;;;;;8.95;6.82;;;;;;;29.54;70.65;101062.47;5047236;28;70466;-36
2021/10/03 03:02:57;;;;;;;10.00;7.05;;;;;;;29.53;69.94;101055.38;5045581;28;66465;-36
2021/10/03 03:05:29;;;;;;;7.22;6.72;;;;;;;29.42;70.34;101026.25;5044687;28;70389;-37
2021/10/03 03:08:01;;;;;;;12.32;7.68;;;;;;;29.60;69.39;101045.41;5049160;28;65184;-36
2021/10/03 03:10:33;;;;;;;10.05;8.07;;;;;;;29.58;69.28;101040.19;5048089;28;70053;-36
2021/10/03 03:13:05;;;;;;;14.57;8.02;;;;;;;29.63;68.60;101050.44;5039987;28;66341;-37
2021/10/03 03:15:36;;;;;;;14.60;7.97;;;;;;;29.62;69.26;101041.47;5051029;28;70481;-36
2021/10/03 03:18:07;;;;;;;8.13;7.43;;;;;;;29.65;68.55;101040.25;5052898;28;65336;-36
2021/10/03 03:20:38;;;;;;;11.52;6.90;;;;;;;29.66;67.77;101031.09;5030422;28;70729;-36
2021/10/03 03:23:10;;;;;;;8.98;8.18;;;;;;;29.68;68.15;101037.13;5042631;28;65345;-37
2021/10/03 03:25:41;;;;;;;8.60;7.00;;;;;;;29.70;68.78;101037.75;5051764;28;70477;-36
2021/10/03 03:28:12;;;;;;;8.80;7.68;;;;;;;29.70;68.44;101029.66;5045432;28;66640;-37
2021/10/03 03:30:46;;;;;;;11.25;8.23;;;;;;;29.73;68.17;101014.88;5052540;28;70907;-38
2021/10/03 03:33:17;;;;;;;9.52;8.77;;;;;;;29.74;68.21;101011.97;5044195;28;66316;-37
2021/10/03 03:35:49;;;;;;;11.13;8.45;;;;;;;29.76;68.07;101001.78;5030187;28;69545;-36
2021/10/03 03:38:22;;;;;;;8.93;8.32;;;;;;;29.79;68.84;101009.47;5043234;28;65826;-37
2021/10/03 03:40:53;;;;;;;13.10;8.70;;;;;;;29.80;68.40;100997.59;5053261;28;70203;-38
2021/10/03 03:43:24;;;;;;;10.80;9.70;;;;;;;29.79;68.18;100992.41;5045584;28;66119;-38
2021/10/03 03:45:55;;;;;;;11.70;9.75;;;;;;;29.84;69.06;100985.31;5049062;28;71150;-39
2021/10/03 03:48:26;;;;;;;12.30;10.57;;;;;;;29.84;68.75;100977.22;5030230;28;66328;-36
2021/10/03 03:50:58;;;;;;;11.23;10.13;;;;;;;29.88;68.40;100976.78;5039312;28;71013;-37
2021/10/03 03:53:29;;;;;;;14.93;11.88;;;;;;;29.81;68.96;100964.13;5048683;27;66088;-37
2021/10/03 03:56:01;;;;;;;15.05;11.80;;;;;;;29.90;69.08;100974.72;5047302;28;70999;-37
2021/10/03 03:58:32;;;;;;;18.30;11.82;;;;;;;29.90;69.58;100978.25;5024806;28;66222;-36
2021/10/03 04:01:03;;;;;;;12.70;11.40;;;;;;;29.90;69.32;100980.13;5043329;28;70124;-36
2021/10/03 04:03:34;;;;;;;15.07;12.88;;;;;;;29.91;69.59;100973.66;5045533;28;66826;-37
2021/10/03 04:06:04;;;;;;;16.75;11.85;;;;;;;29.94;69.19;100968.66;5042956;28;69667;-37
2021/10/03 04:08:35;;;;;;;13.85;12.48;;;;;;;29.90;68.92;100972.00;5041482;28;65631;-37
2021/10/03 04:11:08;;;;;;;15.30;13.30;;;;;;;29.90;68.52;100967.44;5044919;28;70005;-36
2021/10/03 04:13:39;;;;;;;13.80;12.50;;;;;;;29.90;68.95;100950.38;5042886;28;65549;-39
2021/10/03 04:16:12;;;;;;;12.70;11.40;;;;;;;29.93;68.56;100947.25;5046151;28;69026;-37
2021/10/03 04:18:42;;;;;;;14.77;11.23;;;;;;;29.85;69.19;100937.47;5045300;28;65864;-38
2021/10/03 04:21:13;;;;;;;11.88;10.77;;;;;;;29.94;69.13;100941.59;5041797;28;71349;-38
2021/10/03 04:23:44;;;;;;;11.20;10.40;;;;;;;29.97;69.50;100940.34;5038482;28;65736;-37
2021/10/03 04:26:16;;;;;;;12.15;11.05;;;;;;;29.95;69.79;100921.66;5023788;28;69384;-38
2021/10/03 04:28:49;;;;;;;12.57;11.27;;;;;;;30.04;69.60;100928.47;5025620;28;65852;-36
2021/10/03 04:31:24;;;;;;;12.18;11.02;;;;;;;30.06;69.17;100928.25;5020470;28;70523;-38
2021/10/03 04:33:57;;;;;;;9.20;8.35;;;;;;;30.07;68.04;100924.50;5042078;28;65749;-38
2021/10/03 04:36:27;;;;;;;11.38;8.63;;;;;;;30.11;68.68;100925.72;5045674;28;69340;-37
2021/10/03 04:38:58;;;;;;;10.77;9.60;;;;;;;30.01;69.18;100892.91;5042706;28;65052;-38
2021/10/03 04:41:29;;;;;;;12.18;9.73;;;;;;;30.15;68.62;100910.75;5047459;28;70276;-37
2021/10/03 04:44:00;;;;;;;11.98;9.43;;;;;;;30.12;69.35;100904.94;5045976;28;65198;-37
2021/10/03 04:46:32;;;;;;;20.13;9.25;;;;;;;30.14;69.20;100898.25;5037713;28;69893;-38
2021/10/03 04:49:03;;;;;;;;;;;;;;;29.95;69.31;100907.28;5053035;28;65854;-37
2021/10/03 04:51:34;;;;;;;10.05;9.23;;;;;;;30.13;68.22;100896.59;5049679;28;69718;-37
2021/10/03 04:54:05;;;;;;;10.55;9.27;;;;;;;30.17;68.24;100886.16;5049024;27;66278;-38
2021/10/03 04:56:35;;;;;;;10.57;9.57;;;;;;;30.12;68.76;100877.88;5031795;28;70045;-37
2021/10/03 04:59:06;;;;;;;10.05;9.15;;;;;;;30.11;68.88;100873.50;5042338;28;66674;-37
2021/10/03 05:01:37;;;;;;;10.43;9.40;;;;;;;30.17;68.45;100883.47;5044218;28;69974;-36
2021/10/03 05:04:08;;;;;;;10.43;9.43;;;;;;;30.14;68.69;100871.19;5045641;28;66533;-38
2021/10/03 05:06:41;;;;;;;10.93;9.93;;;;;;;30.16;68.73;100869.09;5045790;28;70617;-37
2021/10/03 05:09:11;;;;;;;10.88;8.90;;;;;;;30.16;67.95;100862.88;5045240;28;67444;-37
2021/10/03 05:11:42;;;;;;;12.95;10.63;;;;;;;30.21;68.16;100869.28;5045821;28;69597;-37
2021/10/03 05:14:13;;;;;;;17.98;10.20;;;;;;;30.15;68.19;100845.81;5048369;28;66021;-37
2021/10/03 05:16:44;;;;;;;9.98;9.00;;;;;;;30.19;67.09;100849.72;5035954;28;69304;-36
2021/10/03 05:19:16;;;;;;;10.48;9.57;;;;;;;30.23;67.25;100848.31;5037041;28;66005;-36
2021/10/03 05:21:47;;;;;;;9.88;9.10;;;;;;;30.27;67.78;100846.81;5034272;28;69801;-36
2021/10/03 05:24:19;;;;;;;9.35;8.45;;;;;;;30.27;67.59;100838.69;5049477;28;65472;-37
2021/10/03 05:26:50;;;;;;;;;;;;;;;30.10;68.23;100842.94;5034791;28;69937;-36
2021/10/03 05:29:21;;;;;;;9.73;8.95;;;;;;;30.32;67.38;100827.22;5051385;27;66623;-37
2021/10/03 05:31:52;;;;;;;12.20;11.30;;;;;;;30.27;67.97;100816.22;5042835;28;70365;-37
2021/10/03 05:34:23;;;;;;;15.23;14.00;;;;;;;30.37;67.47;100823.84;5052653;28;66945;-39
2021/10/03 05:36:54;;;;;;;15.85;14.55;;;;;;;30.38;67.36;100817.41;5049243;28;71868;-36
2021/10/03 05:39:25;;;;;;;14.98;13.63;;;;;;;30.31;67.34;100795.78;5057164;28;65586;-35
2021/10/03 05:41:56;;;;;;;13.98;12.73;;;;;;;30.38;67.48;100806.59;5048360;28;73604;-36
2021/10/03 05:44:28;;;;;;;13.47;12.00;;;;;;;30.36;67.80;100808.66;5044547;28;65878;-37
2021/10/03 05:46:59;;;;;;;13.68;11.50;;;;;;;30.10;68.63;100761.78;5045952;28;69735;-35
2021/10/03 05:49:31;;;;;;;11.20;10.30;;;;;;;30.40;68.28;100801.78;5058204;27;66449;-35
2021/10/03 05:52:02;;;;;;;9.80;8.45;;;;;;;30.42;67.78;100794.25;5058082;28;70411;-35
2021/10/03 05:54:33;;;;;;;9.23;8.15;;;;;;;30.36;67.71;100768.91;5052757;27;66066;-35
2021/10/03 05:57:04;;;;;;;7.90;7.30;;;;;;;30.41;67.57;100782.59;5034797;28;70051;-36
2021/10/03 05:59:35;;;;;;;8.30;7.70;;;;;;;30.41;68.18;100768.25;5051139;27;65835;-36
2021/10/03 06:02:07;;;;;;;7.13;6.57;;;;;;;30.53;68.50;100774.59;5055724;28;69573;-36
2021/10/03 06:04:38;;;;;;;8.13;6.28;;;;;;;30.57;67.80;100770.41;5059649;27;65925;-37
2021/10/03 06:07:09;;;;;;;;;;;;;;;30.40;67.50;100759.31;5050908;28;69786;-37
2021/10/03 06:09:42;;;;;;;6.07;5.38;;;;;;;30.75;67.38;100753.38;5034351;28;66197;-36
2021/10/03 06:12:15;;;;;;;5.95;5.55;;;;;;;30.82;66.87;100745.25;5048854;28;70724;-36
2021/10/03 06:14:47;;;;;;;5.53;5.13;;;;;;;30.87;66.79;100745.38;5053198;28;65844;-37
2021/10/03 06:17:18;;;;;;;5.88;5.38;;;;;;;30.89;66.72;100744.09;5049568;28;70109;-36
2021/10/03 06:19:49;;;;;;;5.40;5.00;;;;;;;30.85;66.53;100721.25;5050820;27;65370;-36
2021/10/03 06:22:23;;;;;;;5.18;4.78;;;;;;;30.97;66.21;100734.03;5047462;28;70044;-36
2021/10/03 06:24:54;;;;;;;5.55;5.15;;;;;;;31.00;66.52;100725.47;5053623;28;66521;-36
2021/10/03 06:27:26;;;;;;;5.47;5.07;;;;;;;31.06;66.65;100722.66;5052895;28;70555;-36
2021/10/03 06:29:57;;;;;;;5.15;4.85;;;;;;;31.10;66.69;100715.75;5052956;27;67964;-36
2021/10/03 06:32:28;;;;;;;5.37;5.07;;;;;;;31.12;66.47;100716.38;5058462;27;70142;-36
2021/10/03 06:34:59;;;;;;;8.75;5.35;;;;;;;31.11;66.21;100709.28;5052035;28;66129;-37
2021/10/03 06:37:30;;;;;;;6.82;5.00;;;;;;;31.20;66.11;100706.25;5043727;28;70632;-36
2021/10/03 06:40:02;;;;;;;4.93;4.60;;;;;;;31.19;66.11;100693.78;5045914;28;66345;-37
2021/10/03 06:42:33;;;;;;;5.10;4.70;;;;;;;31.21;66.02;100691.69;5046154;28;69223;-37
2021/10/03 06:45:04;;;;;;;;;;;;;;;30.94;66.67;100697.38;5043318;28;66142;-36
2021/10/03 06:47:35;;;;;;;4.95;4.63;;;;;;;31.21;66.50;100686.25;5049210;28;69756;-37
2021/10/03 06:50:07;;;;;;;5.25;4.75;;;;;;;31.13;65.92;100668.41;5044680;28;66244;-35
2021/10/03 06:52:39;;;;;;;9.23;4.57;;;;;;;31.25;66.01;100680.13;5049560;28;70451;-36
2021/10/03 06:55:10;;;;;;;5.23;4.80;;;;;;;31.26;65.72;100678.25;5045740;28;65469;-36
2021/10/03 06:57:41;;;;;;;4.40;4.10;;;;;;;31.28;66.41;100681.56;5049051;28;70038;-36
2021/10/03 07:00:13;;;;;;;5.45;4.75;;;;;;;31.33;65.86;100676.28;5050951;27;67104;-35
2021/10/03 07:02:45;;;;;;;4.68;4.38;;;;;;;31.34;66.11;100670.66;5041575;28;69762;-35
2021/10/03 07:05:16;;;;;;;5.32;3.80;;;;;;;31.34;65.64;100672.50;5049866;28;66139;-36
2021/10/03 07:07:49;;;;;;;4.53;4.22;;;;;;;31.39;65.46;100654.53;5048138;28;70235;-36
2021/10/03 07:10:20;;;;;;;4.75;4.45;;;;;;;31.38;65.86;100661.03;5049871;28;65224;-36
2021/10/03 07:12:51;;;;;;;5.43;4.53;;;;;;;31.38;65.99;100654.78;5051486;28;70682;-36
2021/10/03 07:15:23;;;;;;;4.40;4.10;;;;;;;31.41;65.54;100648.91;5035735;28;65073;-36
2021/10/03 07:17:54;;;;;;;5.25;4.72;;;;;;;31.38;65.49;100647.47;5037463;28;69730;-36
2021/10/03 07:20:26;;;;;;;4.73;4.27;;;;;;;31.41;65.79;100642.66;5056225;28;65998;-36
2021/10/03 07:22:57;;;;;;;5.22;4.82;;;;;;;31.47;65.79;100645.28;5020651;28;70019;-37
2021/10/03 07:25:28;;;;;;;4.37;4.00;;;;;;;31.25;65.99;100644.09;5045467;28;66297;-36
2021/10/03 07:28:00;;;;;;;9.38;4.72;;;;;;;31.13;66.07;100642.16;5044200;28;69571;-36
2021/10/03 07:30:31;;;;;;;4.80;4.40;;;;;;;31.03;66.35;100631.00;5031778;28;66265;-36
2021/10/03 07:33:02;;;;;;;4.53;4.23;;;;;;;31.01;66.60;100633.16;5039515;28;70881;-36
2021/10/03 07:35:33;;;;;;;4.43;4.13;;;;;;;30.96;66.41;100634.88;5036989;28;66057;-36
2021/10/03 07:38:05;;;;;;;4.67;4.37;;;;;;;30.96;66.71;100630.28;5049503;28;69352;-35
2021/10/03 07:40:36;;;;;;;4.93;4.63;;;;;;;30.94;66.91;100616.13;5047742;28;65827;-36
2021/10/03 07:43:07;;;;;;;4.65;4.35;;;;;;;30.92;66.40;100615.53;5043882;28;70286;-36
2021/10/03 07:45:38;;;;;;;6.07;4.40;;;;;;;30.98;66.71;100620.06;5043076;28;65439;-36
2021/10/03 07:48:10;;;;;;;4.93;4.60;;;;;;;30.97;66.57;100612.97;5045942;28;69878;-36
2021/10/03 07:50:40;;;;;;;4.90;4.50;;;;;;;31.00;66.19;100615.22;5038492;28;66159;-36
2021/10/03 07:53:12;;;;;;;4.60;4.30;;;;;;;30.97;66.57;100604.84;5041196;28;69299;-38
2021/10/03 07:55:44;;;;;;;6.20;4.90;;;;;;;31.04;66.71;100605.59;5045189;28;65913;-38
2021/10/03 07:58:14;;;;;;;;;;;;;;;30.80;67.09;100603.81;5045109;28;70563;-38
2021/10/03 08:00:45;;;;;;;4.93;4.55;;;;;;;30.96;66.36;100581.53;5037929;28;65907;-38
2021/10/03 08:03:16;;;;;;;4.28;4.03;;;;;;;31.07;66.28;100599.72;5043812;28;70866;-39
2021/10/03 08:05:47;;;;;;;4.45;4.15;;;;;;;31.07;66.16;100594.31;5043560;28;66316;-39
2021/10/03 08:08:19;;;;;;;5.10;4.57;;;;;;;31.07;66.41;100583.47;5047041;28;69956;-39
2021/10/03 08:10:50;;;;;;;4.97;4.60;;;;;;;30.96;66.60;100562.56;5026546;28;66331;-40
2021/10/03 08:13:22;;;;;;;5.18;4.78;;;;;;;31.08;67.07;100585.09;5067264;27;70295;-38
2021/10/03 08:15:54;;;;;;;13.00;5.33;;;;;;;31.03;67.08;100582.25;5052748;28;66334;-39
2021/10/03 08:18:25;;;;;;;5.32;4.97;;;;;;;30.98;66.96;100571.31;5021126;28;70313;-39
2021/10/03 08:20:56;;;;;;;6.17;5.73;;;;;;;31.08;66.68;100581.56;5050459;28;66091;-38
2021/10/03 08:23:28;;;;;;;6.95;6.43;;;;;;;30.97;67.36;100564.22;5049564;28;70636;-39
2021/10/03 08:26:00;;;;;;;6.90;6.40;;;;;;;31.07;66.94;100578.03;5038437;28;65998;-39
2021/10/03 08:28:32;;;;;;;7.00;6.40;;;;;;;31.01;66.98;100568.13;5049935;28;71414;-39
2021/10/03 08:31:03;;;;;;;8.00;7.50;;;;;;;31.01;66.66;100568.13;5041638;28;65475;-39
2021/10/03 08:33:34;;;;;;;9.27;8.27;;;;;;;31.01;67.33;100567.28;5034240;28;69692;-38
2021/10/03 08:36:06;;;;;;;;;;;;;;;30.77;68.03;100571.75;5049387;28;66129;-38
2021/10/03 08:38:37;;;;;;;9.70;9.10;;;;;;;30.92;67.18;100561.34;5050039;28;70624;-39
2021/10/03 08:41:09;;;;;;;10.45;9.65;;;;;;;30.92;67.42;100553.22;5051487;28;66463;-39
2021/10/03 08:43:40;;;;;;;10.48;9.45;;;;;;;30.99;67.05;100553.97;5042249;28;70274;-38
2021/10/03 08:46:12;;;;;;;10.77;9.88;;;;;;;31.00;67.31;100565.63;5037150;28;66320;-40
2021/10/03 08:48:42;;;;;;;;;;;;;;;30.76;67.93;100565.50;5037904;28;70345;-39
2021/10/03 08:51:14;;;;;;;11.30;10.27;;;;;;;30.99;67.64;100564.00;5044103;28;65503;-39
2021/10/03 08:53:46;;;;;;;10.87;10.03;;;;;;;30.98;67.55;100549.63;5042182;28;70472;-39
2021/10/03 08:56:17;;;;;;;11.75;10.75;;;;;;;30.95;68.00;100547.34;5042157;28;65774;-38
2021/10/03 08:58:51;;;;;;;11.23;10.23;;;;;;;30.96;68.05;100546.31;5046332;28;70214;-39
2021/10/03 09:01:23;;;;;;;12.63;11.60;;;;;;;30.99;67.75;100548.56;5037831;28;65714;-38
2021/10/03 09:03:55;;;;;;;11.68;10.63;;;;;;;30.79;67.71;100512.78;5036321;28;69323;-39
2021/10/03 09:06:28;;;;;;;13.10;11.88;;;;;;;30.98;67.73;100541.50;5033193;28;66152;-38
2021/10/03 09:09:00;;;;;;;12.60;11.43;;;;;;;31.05;68.42;100536.81;5064756;27;69657;-40
2021/10/03 09:11:35;;;;;;;11.98;10.82;;;;;;;30.61;68.39;100463.00;5018486;28;65911;-38
2021/10/03 09:14:06;;;;;;;11.93;10.98;;;;;;;31.09;68.32;100538.00;5050883;28;69981;-39
2021/10/03 09:16:38;;;;;;;12.07;10.93;;;;;;;31.06;68.18;100535.75;5049807;28;65618;-37
2021/10/03 09:19:14;;;;;;;13.57;12.43;;;;;;;31.10;67.70;100536.13;5042686;28;70270;-38
2021/10/03 09:21:46;;;;;;;13.52;12.23;;;;;;;31.12;68.14;100548.38;5029183;28;66331;-39
2021/10/03 09:24:21;;;;;;;13.30;11.10;;;;;;;31.06;68.06;100530.31;5049360;28;70067;-39
2021/10/03 09:27:03;;;;;;;20.33;11.65;;;;;;;31.01;68.22;100530.22;5049236;28;67057;-39
2021/10/03 09:29:36;;;;;;;12.73;11.23;;;;;;;30.78;67.45;100494.84;5030165;28;69474;-40
2021/10/03 09:32:20;;;;;;;12.32;11.13;;;;;;;31.10;67.03;100563.22;5047963;28;66294;-40
2021/10/03 09:34:52;;;;;;;18.90;10.60;;;;;;;31.09;66.64;100558.84;5042299;27;70197;-39
2021/10/03 09:37:29;;;;;;;10.65;9.65;;;;;;;31.09;66.33;100567.81;5035516;28;65292;-40
2021/10/03 09:40:13;;;;;;;19.20;10.35;;;;;;;30.81;66.21;100535.03;5049603;28;69097;-40
2021/10/03 09:43:07;;;;;;;13.25;11.93;;;;;;;30.98;66.54;100563.19;5046127;28;66289;-41
2021/10/03 09:45:38;;;;;;;20.05;12.30;;;;;;;31.09;66.78;100580.50;5040081;28;70528;-40
2021/10/03 09:48:09;;;;;;;13.35;11.57;;;;;;;31.10;66.68;100574.06;5049295;28;66616;-40
2021/10/03 09:50:40;;;;;;;20.80;11.18;;;;;;;31.03;67.21;100574.13;5046001;28;69643;-39
2021/10/03 09:53:14;;;;;;;12.63;10.35;;;;;;;31.04;67.34;100572.28;5048434;28;65124;-39
2021/10/03 09:55:46;;;;;;;11.35;10.13;;;;;;;31.12;67.08;100585.47;5047313;28;69979;-40
2021/10/03 09:58:18;;;;;;;10.88;9.65;;;;;;;30.79;66.97;100531.72;5048638;28;67032;-39
2021/10/03 10:00:48;;;;;;;;;;;;;;;30.87;68.22;100582.88;5047085;28;70238;-40
2021/10/03 10:03:19;;;;;;;10.27;9.40;;;;;;;31.04;67.40;100578.50;5047284;28;66803;-39
2021/10/03 10:05:50;;;;;;;11.00;9.80;;;;;;;30.92;67.83;100551.38;4958041;28;2477757;-39
2021/10/03 10:08:21;;;;;;;17.73;9.48;;;;;;;30.94;67.45;100554.66;5044478;28;66008;-39
2021/10/03 10:10:55;;;;;;;10.83;10.03;;;;;;;30.95;67.53;100563.59;5048586;28;69328;-40
2021/10/03 10:13:27;;;;;;;14.13;10.07;;;;;;;31.04;67.56;100583.94;5048020;28;66153;-39
2021/10/03 10:16:17;;;;;;;;;;;;;;;30.85;68.26;100593.94;5051582;28;69482;-39
2021/10/03 10:18:48;;;;;;;10.85;9.73;;;;;;;31.04;68.24;100594.75;5037431;28;65134;-39
2021/10/03 10:21:22;;;;;;;13.88;10.00;;;;;;;31.04;68.78;100594.75;5050685;28;69754;-39
2021/10/03 10:23:53;;;;;;;14.50;9.52;;;;;;;30.86;68.13;100560.38;5055777;28;65776;-40
2021/10/03 10:26:50;;;;;;;12.90;10.75;;;;;;;31.06;68.11;100597.22;5050394;28;71400;-40
2021/10/03 10:29:48;;;;;;;12.90;10.30;;;;;;;31.12;68.02;100591.75;5053664;28;65519;-40
2021/10/03 10:32:22;;;;;;;11.13;10.07;;;;;;;31.24;68.22;100599.09;5058494;28;70498;-39
2021/10/03 10:35:09;;;;;;;11.05;10.25;;;;;;;31.18;67.92;100606.25;5049476;27;65834;-40
2021/10/03 10:37:55;;;;;;;13.32;10.23;;;;;;;31.23;67.43;100602.84;5058939;28;70302;-39
2021/10/03 10:40:26;;;;;;;14.13;10.20;;;;;;;31.30;67.85;100606.28;5051655;28;66430;-40
2021/10/03 10:43:03;;;;;;;13.43;10.13;;;;;;;31.30;67.42;100609.81;5051722;28;70211;-40
2021/10/03 10:45:35;;;;;;;12.90;10.63;;;;;;;31.32;67.68;100607.72;5051320;28;65447;-40
2021/10/03 10:48:12;;;;;;;11.98;10.77;;;;;;;31.30;68.01;100609.00;5046596;28;68166;-38
2021/10/03 10:50:55;;;;;;;11.93;10.88;;;;;;;31.27;68.06;100614.88;5048487;28;65992;-40
2021/10/03 10:53:35;;;;;;;12.07;11.07;;;;;;;30.95;67.82;100560.91;5043762;28;70173;-39
2021/10/03 10:56:05;;;;;;;12.07;10.85;;;;;;;31.32;68.29;100613.13;5047980;27;66267;-40
2021/10/03 10:59:01;;;;;;;12.45;11.15;;;;;;;31.22;68.10;100618.28;5055208;28;70812;-39
2021/10/03 11:01:36;;;;;;;12.10;10.82;;;;;;;31.33;67.77;100627.50;5043008;28;65260;-40
2021/10/03 11:04:22;;;;;;;12.35;11.05;;;;;;;31.03;67.76;100582.25;5040890;28;68903;-40
2021/10/03 11:06:56;;;;;;;11.85;10.85;;;;;;;31.33;67.95;100641.06;5046835;28;66188;-40
2021/10/03 11:09:28;;;;;;;13.48;12.32;;;;;;;31.27;67.95;100636.56;5040029;28;70024;-40
2021/10/03 11:12:04;;;;;;;12.55;11.23;;;;;;;31.29;67.94;100629.03;5042295;28;65950;-40
2021/10/03 11:14:37;;;;;;;13.38;11.50;;;;;;;31.34;68.01;100643.56;5048667;28;70222;-39
2021/10/03 11:17:18;;;;;;;12.23;10.98;;;;;;;31.33;67.71;100643.78;5050483;28;65536;-40
2021/10/03 11:19:50;;;;;;;11.95;10.95;;;;;;;31.33;67.73;100654.63;5044280;27;70351;-39
2021/10/03 11:22:25;;;;;;;11.63;10.65;;;;;;;31.14;67.50;100624.81;5045218;28;66213;-39
2021/10/03 11:24:57;;;;;;;12.32;11.32;;;;;;;30.85;67.48;100571.47;5046726;28;69761;-39
2021/10/03 11:27:32;;;;;;;11.88;10.90;;;;;;;31.21;67.96;100653.75;5051838;28;66710;-39
2021/10/03 11:30:04;;;;;;;12.43;11.30;;;;;;;30.53;67.97;100555.34;5053834;27;68987;-39
2021/10/03 11:32:40;;;;;;;12.50;11.30;;;;;;;30.90;69.10;100620.38;5044919;28;65574;-40
2021/10/03 11:35:12;;;;;;;10.88;9.98;;;;;;;31.01;69.00;100645.84;5047041;28;69296;-40
2021/10/03 11:37:51;;;;;;;11.70;10.70;;;;;;;31.02;69.09;100656.47;5040483;28;65310;-39
2021/10/03 11:40:25;;;;;;;11.48;10.50;;;;;;;30.42;69.21;100561.50;5045337;28;69975;-39
2021/10/03 11:42:59;;;;;;;12.30;11.02;;;;;;;30.99;69.64;100667.75;5037449;28;66551;-40
2021/10/03 11:45:36;;;;;;;11.30;10.13;;;;;;;30.90;69.84;100647.44;5045661;28;70376;-40